Terminal Aerodrome Forecast
Issued by NWS

Home | Current Version | Previous Version | Text Only | Print | Product List | Glossary On
Versions: 1 2 3 4 5 6 7 8 9 10 11 12 13 14
000
FTUS42 TJSJ 201100
TAFJBQ
TAF
TJBQ 201127Z 2012/2112 11010KT P6SM SCT025 SCT070
     FM201430 07014KT P6SM SCT025
     FM201730 07015G25KT P6SM VCTS SCT025 BKN040CB
     FM202200 09010KT P6SM SCT025=

USA.gov is the U.S. government's official web portal to all federal, state and local government web resources and services.